sensor_id;sensor_type;location;lat;lon;timestamp;P1;durP1;ratioP1;P2;durP2;ratioP2
7903;SDS011;3997;48.416;8.512;2023-08-01T00:01:41;4.28;;;3.88;;
7903;SDS011;3997;48.416;8.512;2023-08-01T00:04:08;4.85;;;3.90;;
7903;SDS011;3997;48.416;8.512;2023-08-01T00:06:34;5.40;;;3.95;;
7903;SDS011;3997;48.416;8.512;2023-08-01T00:09:01;4.68;;;3.70;;
7903;SDS011;3997;48.416;8.512;2023-08-01T00:11:27;4.15;;;3.75;;
7903;SDS011;3997;48.416;8.512;2023-08-01T00:13:54;6.05;;;3.88;;
7903;SDS011;3997;48.416;8.512;2023-08-01T00:16:21;4.72;;;3.85;;
7903;SDS011;3997;48.416;8.512;2023-08-01T00:18:48;4.07;;;3.70;;
7903;SDS011;3997;48.416;8.512;2023-08-01T00:21:14;4.20;;;3.70;;
7903;SDS011;3997;48.416;8.512;2023-08-01T00:23:41;5.57;;;3.95;;
7903;SDS011;3997;48.416;8.512;2023-08-01T00:26:07;4.95;;;4.10;;
7903;SDS011;3997;48.416;8.512;2023-08-01T00:28:34;4.57;;;4.18;;
7903;SDS011;3997;48.416;8.512;2023-08-01T00:31:04;4.10;;;3.70;;
7903;SDS011;3997;48.416;8.512;2023-08-01T00:33:32;4.35;;;3.95;;
7903;SDS011;3997;48.416;8.512;2023-08-01T00:35:58;4.65;;;3.97;;
7903;SDS011;3997;48.416;8.512;2023-08-01T00:38:25;4.13;;;3.72;;
7903;SDS011;3997;48.416;8.512;2023-08-01T00:40:51;4.32;;;4.00;;
7903;SDS011;3997;48.416;8.512;2023-08-01T00:43:17;4.32;;;3.53;;
7903;SDS011;3997;48.416;8.512;2023-08-01T00:45:44;4.50;;;4.10;;
7903;SDS011;3997;48.416;8.512;2023-08-01T00:48:11;4.00;;;3.70;;
7903;SDS011;3997;48.416;8.512;2023-08-01T00:50:39;5.00;;;3.47;;
7903;SDS011;3997;48.416;8.512;2023-08-01T00:53:05;3.35;;;3.10;;
7903;SDS011;3997;48.416;8.512;2023-08-01T00:55:32;4.00;;;3.60;;
7903;SDS011;3997;48.416;8.512;2023-08-01T00:57:58;4.13;;;3.72;;
7903;SDS011;3997;48.416;8.512;2023-08-01T01:00:25;4.45;;;3.05;;
7903;SDS011;3997;48.416;8.512;2023-08-01T01:02:52;4.15;;;3.80;;
7903;SDS011;3997;48.416;8.512;2023-08-01T01:05:18;4.07;;;3.67;;
7903;SDS011;3997;48.416;8.512;2023-08-01T01:07:47;4.15;;;3.75;;
7903;SDS011;3997;48.416;8.512;2023-08-01T01:10:15;4.63;;;3.20;;
7903;SDS011;3997;48.416;8.512;2023-08-01T01:12:41;4.15;;;3.35;;
7903;SDS011;3997;48.416;8.512;2023-08-01T01:15:08;4.68;;;3.90;;
7903;SDS011;3997;48.416;8.512;2023-08-01T01:17:34;3.17;;;2.88;;
7903;SDS011;3997;48.416;8.512;2023-08-01T01:20:01;5.38;;;3.50;;
7903;SDS011;3997;48.416;8.512;2023-08-01T01:22:29;3.75;;;3.45;;
7903;SDS011;3997;48.416;8.512;2023-08-01T01:24:56;3.20;;;2.90;;
7903;SDS011;3997;48.416;8.512;2023-08-01T01:27:23;3.88;;;3.47;;
7903;SDS011;3997;48.416;8.512;2023-08-01T01:29:50;6.70;;;4.07;;
7903;SDS011;3997;48.416;8.512;2023-08-01T01:32:16;3.75;;;3.45;;
7903;SDS011;3997;48.416;8.512;2023-08-01T01:34:44;3.97;;;3.63;;
7903;SDS011;3997;48.416;8.512;2023-08-01T01:37:10;5.03;;;3.65;;
7903;SDS011;3997;48.416;8.512;2023-08-01T01:39:38;4.88;;;3.63;;
7903;SDS011;3997;48.416;8.512;2023-08-01T01:42:04;4.82;;;3.42;;
7903;SDS011;3997;48.416;8.512;2023-08-01T01:44:31;4.40;;;4.00;;
7903;SDS011;3997;48.416;8.512;2023-08-01T01:46:57;4.72;;;3.83;;
7903;SDS011;3997;48.416;8.512;2023-08-01T01:49:24;6.45;;;3.53;;
7903;SDS011;3997;48.416;8.512;2023-08-01T01:51:51;4.38;;;3.17;;
7903;SDS011;3997;48.416;8.512;2023-08-01T01:54:17;4.32;;;3.88;;
7903;SDS011;3997;48.416;8.512;2023-08-01T01:56:45;5.18;;;2.88;;
7903;SDS011;3997;48.416;8.512;2023-08-01T01:59:11;5.28;;;3.53;;
7903;SDS011;3997;48.416;8.512;2023-08-01T02:01:38;4.43;;;3.22;;
7903;SDS011;3997;48.416;8.512;2023-08-01T02:04:04;4.80;;;3.10;;
7903;SDS011;3997;48.416;8.512;2023-08-01T02:06:31;2.97;;;2.75;;
7903;SDS011;3997;48.416;8.512;2023-08-01T02:08:57;3.85;;;3.45;;
7903;SDS011;3997;48.416;8.512;2023-08-01T02:11:24;4.38;;;3.45;;
7903;SDS011;3997;48.416;8.512;2023-08-01T02:13:51;3.63;;;2.78;;
7903;SDS011;3997;48.416;8.512;2023-08-01T02:16:19;4.13;;;2.80;;
7903;SDS011;3997;48.416;8.512;2023-08-01T02:18:45;4.75;;;3.08;;
7903;SDS011;3997;48.416;8.512;2023-08-01T02:21:12;5.07;;;3.40;;
7903;SDS011;3997;48.416;8.512;2023-08-01T02:23:38;6.68;;;3.15;;
7903;SDS011;3997;48.416;8.512;2023-08-01T02:26:05;3.80;;;2.90;;
7903;SDS011;3997;48.416;8.512;2023-08-01T02:28:33;3.33;;;2.95;;
7903;SDS011;3997;48.416;8.512;2023-08-01T02:31:01;5.20;;;3.45;;
7903;SDS011;3997;48.416;8.512;2023-08-01T02:33:27;3.88;;;3.53;;
7903;SDS011;3997;48.416;8.512;2023-08-01T02:35:54;3.95;;;3.13;;
7903;SDS011;3997;48.416;8.512;2023-08-01T02:38:20;3.13;;;2.75;;
7903;SDS011;3997;48.416;8.512;2023-08-01T02:40:46;4.18;;;2.88;;
7903;SDS011;3997;48.416;8.512;2023-08-01T02:43:13;4.38;;;3.40;;
7903;SDS011;3997;48.416;8.512;2023-08-01T02:45:41;3.20;;;2.80;;
7903;SDS011;3997;48.416;8.512;2023-08-01T02:48:09;3.00;;;2.30;;
7903;SDS011;3997;48.416;8.512;2023-08-01T02:50:35;4.55;;;3.33;;
7903;SDS011;3997;48.416;8.512;2023-08-01T02:53:02;4.97;;;3.38;;
7903;SDS011;3997;48.416;8.512;2023-08-01T02:55:28;5.75;;;2.90;;
7903;SDS011;3997;48.416;8.512;2023-08-01T02:57:54;4.57;;;3.15;;
7903;SDS011;3997;48.416;8.512;2023-08-01T03:00:21;3.95;;;3.22;;
7903;SDS011;3997;48.416;8.512;2023-08-01T03:02:47;5.38;;;3.38;;
7903;SDS011;3997;48.416;8.512;2023-08-01T03:05:15;9.65;;;3.20;;
7903;SDS011;3997;48.416;8.512;2023-08-01T03:07:42;5.07;;;2.85;;
7903;SDS011;3997;48.416;8.512;2023-08-01T03:10:08;6.97;;;3.42;;
7903;SDS011;3997;48.416;8.512;2023-08-01T03:12:36;5.90;;;3.20;;
7903;SDS011;3997;48.416;8.512;2023-08-01T03:15:02;5.75;;;2.70;;
7903;SDS011;3997;48.416;8.512;2023-08-01T03:17:29;3.47;;;2.50;;
7903;SDS011;3997;48.416;8.512;2023-08-01T03:19:55;4.00;;;2.85;;
7903;SDS011;3997;48.416;8.512;2023-08-01T03:22:23;5.07;;;2.90;;
7903;SDS011;3997;48.416;8.512;2023-08-01T03:24:49;4.28;;;3.22;;
7903;SDS011;3997;48.416;8.512;2023-08-01T03:27:16;3.90;;;2.60;;
7903;SDS011;3997;48.416;8.512;2023-08-01T03:29:42;5.63;;;3.33;;
7903;SDS011;3997;48.416;8.512;2023-08-01T03:32:09;2.75;;;2.53;;
7903;SDS011;3997;48.416;8.512;2023-08-01T03:34:35;5.15;;;2.92;;
7903;SDS011;3997;48.416;8.512;2023-08-01T03:37:04;3.20;;;2.78;;
7903;SDS011;3997;48.416;8.512;2023-08-01T03:39:32;4.15;;;2.92;;
7903;SDS011;3997;48.416;8.512;2023-08-01T03:41:58;5.55;;;3.53;;
7903;SDS011;3997;48.416;8.512;2023-08-01T03:44:25;5.03;;;2.83;;
7903;SDS011;3997;48.416;8.512;2023-08-01T03:46:51;4.88;;;3.17;;
7903;SDS011;3997;48.416;8.512;2023-08-01T03:49:18;4.53;;;2.80;;
7903;SDS011;3997;48.416;8.512;2023-08-01T03:51:44;3.97;;;2.70;;
7903;SDS011;3997;48.416;8.512;2023-08-01T03:54:11;4.57;;;3.03;;
7903;SDS011;3997;48.416;8.512;2023-08-01T03:56:38;3.97;;;3.15;;
7903;SDS011;3997;48.416;8.512;2023-08-01T03:59:08;3.97;;;2.95;;
7903;SDS011;3997;48.416;8.512;2023-08-01T04:01:34;5.05;;;3.45;;
7903;SDS011;3997;48.416;8.512;2023-08-01T04:04:00;3.55;;;3.20;;
7903;SDS011;3997;48.416;8.512;2023-08-01T04:06:27;3.75;;;3.40;;
7903;SDS011;3997;48.416;8.512;2023-08-01T04:08:53;6.30;;;4.10;;
7903;SDS011;3997;48.416;8.512;2023-08-01T04:11:21;6.85;;;3.00;;
7903;SDS011;3997;48.416;8.512;2023-08-01T04:13:49;4.57;;;3.45;;
7903;SDS011;3997;48.416;8.512;2023-08-01T04:16:15;5.72;;;3.42;;
7903;SDS011;3997;48.416;8.512;2023-08-01T04:18:42;4.03;;;3.50;;
7903;SDS011;3997;48.416;8.512;2023-08-01T04:21:08;6.47;;;3.60;;
7903;SDS011;3997;48.416;8.512;2023-08-01T04:23:35;5.55;;;3.70;;
7903;SDS011;3997;48.416;8.512;2023-08-01T04:26:01;5.30;;;3.85;;
7903;SDS011;3997;48.416;8.512;2023-08-01T04:28:31;4.22;;;3.70;;
7903;SDS011;3997;48.416;8.512;2023-08-01T04:30:58;4.70;;;3.88;;
7903;SDS011;3997;48.416;8.512;2023-08-01T04:33:25;4.38;;;3.85;;
7903;SDS011;3997;48.416;8.512;2023-08-01T04:35:51;6.50;;;3.95;;
7903;SDS011;3997;48.416;8.512;2023-08-01T04:38:18;4.68;;;3.70;;
7903;SDS011;3997;48.416;8.512;2023-08-01T04:40:44;5.13;;;3.88;;
7903;SDS011;3997;48.416;8.512;2023-08-01T04:43:11;5.28;;;3.80;;
7903;SDS011;3997;48.416;8.512;2023-08-01T04:45:38;4.75;;;3.70;;
7903;SDS011;3997;48.416;8.512;2023-08-01T04:48:05;5.85;;;3.47;;
7903;SDS011;3997;48.416;8.512;2023-08-01T04:50:32;4.72;;;3.45;;
7903;SDS011;3997;48.416;8.512;2023-08-01T04:52:58;5.65;;;3.35;;
7903;SDS011;3997;48.416;8.512;2023-08-01T04:55:25;4.47;;;3.03;;
7903;SDS011;3997;48.416;8.512;2023-08-01T04:57:51;4.75;;;3.38;;
7903;SDS011;3997;48.416;8.512;2023-08-01T05:00:18;5.85;;;3.63;;
7903;SDS011;3997;48.416;8.512;2023-08-01T05:02:44;7.85;;;3.67;;
7903;SDS011;3997;48.416;8.512;2023-08-01T05:05:12;3.25;;;2.95;;
7903;SDS011;3997;48.416;8.512;2023-08-01T05:07:41;4.47;;;3.15;;
7903;SDS011;3997;48.416;8.512;2023-08-01T05:10:07;4.18;;;3.15;;
7903;SDS011;3997;48.416;8.512;2023-08-01T05:12:34;4.63;;;3.25;;
7903;SDS011;3997;48.416;8.512;2023-08-01T05:15:01;3.03;;;2.58;;
7903;SDS011;3997;48.416;8.512;2023-08-01T05:17:28;3.83;;;3.08;;
7903;SDS011;3997;48.416;8.512;2023-08-01T05:19:55;3.13;;;2.80;;
7903;SDS011;3997;48.416;8.512;2023-08-01T05:22:23;4.90;;;2.97;;
7903;SDS011;3997;48.416;8.512;2023-08-01T05:24:49;5.57;;;2.80;;
7903;SDS011;3997;48.416;8.512;2023-08-01T05:27:16;4.10;;;2.95;;
7903;SDS011;3997;48.416;8.512;2023-08-01T05:29:42;3.40;;;2.83;;
7903;SDS011;3997;48.416;8.512;2023-08-01T05:32:09;2.58;;;2.38;;
7903;SDS011;3997;48.416;8.512;2023-08-01T05:34:35;2.65;;;2.38;;
7903;SDS011;3997;48.416;8.512;2023-08-01T05:37:02;2.67;;;2.40;;
7903;SDS011;3997;48.416;8.512;2023-08-01T05:39:29;3.17;;;2.65;;
7903;SDS011;3997;48.416;8.512;2023-08-01T05:41:56;3.47;;;2.80;;
7903;SDS011;3997;48.416;8.512;2023-08-01T05:44:22;6.78;;;3.17;;
7903;SDS011;3997;48.416;8.512;2023-08-01T05:46:49;4.10;;;3.33;;
7903;SDS011;3997;48.416;8.512;2023-08-01T05:49:15;5.22;;;3.78;;
7903;SDS011;3997;48.416;8.512;2023-08-01T05:51:42;8.25;;;3.83;;
7903;SDS011;3997;48.416;8.512;2023-08-01T05:54:08;6.13;;;4.30;;
7903;SDS011;3997;48.416;8.512;2023-08-01T05:56:36;5.05;;;3.88;;
7903;SDS011;3997;48.416;8.512;2023-08-01T05:59:02;5.40;;;4.30;;
7903;SDS011;3997;48.416;8.512;2023-08-01T06:01:29;5.60;;;3.90;;
7903;SDS011;3997;48.416;8.512;2023-08-01T06:03:55;5.95;;;4.47;;
7903;SDS011;3997;48.416;8.512;2023-08-01T06:06:22;5.13;;;4.00;;
7903;SDS011;3997;48.416;8.512;2023-08-01T06:08:48;6.78;;;5.13;;
7903;SDS011;3997;48.416;8.512;2023-08-01T06:11:16;6.05;;;4.30;;
7903;SDS011;3997;48.416;8.512;2023-08-01T06:13:44;5.78;;;4.20;;
7903;SDS011;3997;48.416;8.512;2023-08-01T06:16:10;6.32;;;4.57;;
7903;SDS011;3997;48.416;8.512;2023-08-01T06:18:37;4.82;;;4.07;;
7903;SDS011;3997;48.416;8.512;2023-08-01T06:21:03;5.10;;;4.15;;
7903;SDS011;3997;48.416;8.512;2023-08-01T06:23:30;6.93;;;5.40;;
7903;SDS011;3997;48.416;8.512;2023-08-01T06:25:56;8.27;;;4.63;;
7903;SDS011;3997;48.416;8.512;2023-08-01T06:28:23;4.85;;;4.20;;
7903;SDS011;3997;48.416;8.512;2023-08-01T06:30:50;6.50;;;4.68;;
7903;SDS011;3997;48.416;8.512;2023-08-01T06:33:17;5.30;;;4.68;;
7903;SDS011;3997;48.416;8.512;2023-08-01T06:35:43;5.05;;;4.22;;
7903;SDS011;3997;48.416;8.512;2023-08-01T06:38:10;5.95;;;4.47;;
7903;SDS011;3997;48.416;8.512;2023-08-01T06:40:36;6.45;;;4.18;;
7903;SDS011;3997;48.416;8.512;2023-08-01T06:43:02;4.63;;;3.95;;
7903;SDS011;3997;48.416;8.512;2023-08-01T06:45:29;5.55;;;3.97;;
7903;SDS011;3997;48.416;8.512;2023-08-01T06:47:57;5.65;;;3.45;;
7903;SDS011;3997;48.416;8.512;2023-08-01T06:50:23;5.05;;;3.35;;
7903;SDS011;3997;48.416;8.512;2023-08-01T06:52:49;4.13;;;3.08;;
7903;SDS011;3997;48.416;8.512;2023-08-01T06:55:16;4.00;;;2.88;;
7903;SDS011;3997;48.416;8.512;2023-08-01T06:57:42;4.43;;;2.80;;
7903;SDS011;3997;48.416;8.512;2023-08-01T07:00:09;3.30;;;2.75;;
7903;SDS011;3997;48.416;8.512;2023-08-01T07:02:36;3.38;;;2.15;;
7903;SDS011;3997;48.416;8.512;2023-08-01T07:05:04;2.95;;;2.25;;
7903;SDS011;3997;48.416;8.512;2023-08-01T07:07:31;3.30;;;2.60;;
7903;SDS011;3997;48.416;8.512;2023-08-01T07:09:57;2.78;;;2.45;;
7903;SDS011;3997;48.416;8.512;2023-08-01T07:12:23;4.70;;;2.45;;
7903;SDS011;3997;48.416;8.512;2023-08-01T07:14:51;3.15;;;2.53;;
7903;SDS011;3997;48.416;8.512;2023-08-01T07:17:17;3.50;;;2.78;;
7903;SDS011;3997;48.416;8.512;2023-08-01T07:19:43;3.38;;;2.47;;
7903;SDS011;3997;48.416;8.512;2023-08-01T07:22:11;2.70;;;1.98;;
7903;SDS011;3997;48.416;8.512;2023-08-01T07:24:38;4.13;;;2.13;;
7903;SDS011;3997;48.416;8.512;2023-08-01T07:27:04;2.70;;;2.20;;
7903;SDS011;3997;48.416;8.512;2023-08-01T07:29:31;2.90;;;1.88;;
7903;SDS011;3997;48.416;8.512;2023-08-01T07:31:57;2.88;;;2.17;;
7903;SDS011;3997;48.416;8.512;2023-08-01T07:34:24;2.38;;;2.17;;
7903;SDS011;3997;48.416;8.512;2023-08-01T07:36:50;2.28;;;1.67;;
7903;SDS011;3997;48.416;8.512;2023-08-01T07:39:18;1.92;;;1.60;;
7903;SDS011;3997;48.416;8.512;2023-08-01T07:41:44;2.50;;;1.60;;
7903;SDS011;3997;48.416;8.512;2023-08-01T07:44:11;1.85;;;1.50;;
7903;SDS011;3997;48.416;8.512;2023-08-01T07:46:37;2.38;;;1.70;;
7903;SDS011;3997;48.416;8.512;2023-08-01T07:49:04;1.95;;;1.52;;
7903;SDS011;3997;48.416;8.512;2023-08-01T07:51:30;3.00;;;1.42;;
7903;SDS011;3997;48.416;8.512;2023-08-01T07:53:59;1.90;;;1.27;;
7903;SDS011;3997;48.416;8.512;2023-08-01T07:56:27;1.92;;;1.33;;
7903;SDS011;3997;48.416;8.512;2023-08-01T07:58:53;2.50;;;1.27;;
7903;SDS011;3997;48.416;8.512;2023-08-01T08:01:20;2.17;;;1.00;;
7903;SDS011;3997;48.416;8.512;2023-08-01T08:03:46;1.58;;;1.10;;
7903;SDS011;3997;48.416;8.512;2023-08-01T08:06:13;1.40;;;0.80;;
7903;SDS011;3997;48.416;8.512;2023-08-01T08:08:39;2.47;;;0.80;;
7903;SDS011;3997;48.416;8.512;2023-08-01T08:11:05;0.73;;;0.70;;
7903;SDS011;3997;48.416;8.512;2023-08-01T08:13:33;0.68;;;0.68;;
7903;SDS011;3997;48.416;8.512;2023-08-01T08:16:00;1.50;;;0.77;;
7903;SDS011;3997;48.416;8.512;2023-08-01T08:18:26;1.02;;;0.90;;
7903;SDS011;3997;48.416;8.512;2023-08-01T08:20:53;0.77;;;0.77;;
7903;SDS011;3997;48.416;8.512;2023-08-01T08:23:19;1.30;;;1.10;;
7903;SDS011;3997;48.416;8.512;2023-08-01T08:25:45;1.52;;;0.95;;
7903;SDS011;3997;48.416;8.512;2023-08-01T08:28:12;0.70;;;0.70;;
7903;SDS011;3997;48.416;8.512;2023-08-01T08:30:40;0.80;;;0.80;;
7903;SDS011;3997;48.416;8.512;2023-08-01T08:33:07;0.93;;;0.93;;
7903;SDS011;3997;48.416;8.512;2023-08-01T08:35:33;0.98;;;0.70;;
7903;SDS011;3997;48.416;8.512;2023-08-01T08:38:00;1.00;;;0.60;;
7903;SDS011;3997;48.416;8.512;2023-08-01T08:40:27;1.23;;;0.70;;
7903;SDS011;3997;48.416;8.512;2023-08-01T08:42:54;0.63;;;0.60;;
7903;SDS011;3997;48.416;8.512;2023-08-01T08:45:20;0.52;;;0.50;;
7903;SDS011;3997;48.416;8.512;2023-08-01T08:47:51;2.35;;;0.50;;
7903;SDS011;3997;48.416;8.512;2023-08-01T08:50:20;0.40;;;0.40;;
7903;SDS011;3997;48.416;8.512;2023-08-01T08:52:46;0.65;;;0.50;;
7903;SDS011;3997;48.416;8.512;2023-08-01T08:55:12;0.85;;;0.50;;
7903;SDS011;3997;48.416;8.512;2023-08-01T08:57:39;0.40;;;0.40;;
7903;SDS011;3997;48.416;8.512;2023-08-01T09:00:07;0.70;;;0.50;;
7903;SDS011;3997;48.416;8.512;2023-08-01T09:02:34;0.50;;;0.50;;
7903;SDS011;3997;48.416;8.512;2023-08-01T09:05:02;0.40;;;0.40;;
7903;SDS011;3997;48.416;8.512;2023-08-01T09:07:29;0.80;;;0.50;;
7903;SDS011;3997;48.416;8.512;2023-08-01T09:09:56;0.40;;;0.40;;
7903;SDS011;3997;48.416;8.512;2023-08-01T09:12:23;0.52;;;0.50;;
7903;SDS011;3997;48.416;8.512;2023-08-01T09:14:50;0.30;;;0.30;;
7903;SDS011;3997;48.416;8.512;2023-08-01T09:17:16;0.65;;;0.50;;
7903;SDS011;3997;48.416;8.512;2023-08-01T09:19:43;0.50;;;0.50;;
7903;SDS011;3997;48.416;8.512;2023-08-01T09:22:11;0.30;;;0.30;;
7903;SDS011;3997;48.416;8.512;2023-08-01T09:24:38;0.47;;;0.40;;
7903;SDS011;3997;48.416;8.512;2023-08-01T09:27:05;0.30;;;0.30;;
7903;SDS011;3997;48.416;8.512;2023-08-01T09:29:33;0.50;;;0.50;;
7903;SDS011;3997;48.416;8.512;2023-08-01T09:32:00;0.30;;;0.30;;
7903;SDS011;3997;48.416;8.512;2023-08-01T09:34:26;0.40;;;0.40;;
7903;SDS011;3997;48.416;8.512;2023-08-01T09:36:57;0.52;;;0.52;;
7903;SDS011;3997;48.416;8.512;2023-08-01T09:39:25;0.45;;;0.43;;
7903;SDS011;3997;48.416;8.512;2023-08-01T09:41:54;0.68;;;0.60;;
7903;SDS011;3997;48.416;8.512;2023-08-01T09:44:21;1.42;;;0.50;;
7903;SDS011;3997;48.416;8.512;2023-08-01T09:46:54;0.60;;;0.50;;
7903;SDS011;3997;48.416;8.512;2023-08-01T09:49:21;0.40;;;0.40;;
7903;SDS011;3997;48.416;8.512;2023-08-01T09:51:47;0.68;;;0.40;;
7903;SDS011;3997;48.416;8.512;2023-08-01T09:54:14;0.32;;;0.30;;
7903;SDS011;3997;48.416;8.512;2023-08-01T09:56:42;0.30;;;0.30;;
7903;SDS011;3997;48.416;8.512;2023-08-01T09:59:10;0.25;;;0.25;;
7903;SDS011;3997;48.416;8.512;2023-08-01T10:01:37;0.20;;;0.20;;
7903;SDS011;3997;48.416;8.512;2023-08-01T10:04:04;2.88;;;0.32;;
7903;SDS011;3997;48.416;8.512;2023-08-01T10:06:31;1.02;;;0.40;;
7903;SDS011;3997;48.416;8.512;2023-08-01T10:08:59;0.57;;;0.30;;
7903;SDS011;3997;48.416;8.512;2023-08-01T10:11:25;0.98;;;0.30;;
7903;SDS011;3997;48.416;8.512;2023-08-01T10:13:54;2.25;;;0.40;;
7903;SDS011;3997;48.416;8.512;2023-08-01T10:16:20;0.82;;;0.40;;
7903;SDS011;3997;48.416;8.512;2023-08-01T10:18:47;0.30;;;0.30;;
7903;SDS011;3997;48.416;8.512;2023-08-01T10:21:14;0.65;;;0.40;;
7903;SDS011;3997;48.416;8.512;2023-08-01T10:23:41;0.30;;;0.30;;
7903;SDS011;3997;48.416;8.512;2023-08-01T10:26:08;2.08;;;0.70;;
7903;SDS011;3997;48.416;8.512;2023-08-01T10:28:36;0.43;;;0.43;;
7903;SDS011;3997;48.416;8.512;2023-08-01T10:31:11;0.60;;;0.60;;
7903;SDS011;3997;48.416;8.512;2023-08-01T10:33:38;0.88;;;0.60;;
7903;SDS011;3997;48.416;8.512;2023-08-01T10:36:12;0.68;;;0.60;;
7903;SDS011;3997;48.416;8.512;2023-08-01T10:38:44;0.70;;;0.70;;
7903;SDS011;3997;48.416;8.512;2023-08-01T10:41:17;0.60;;;0.60;;
7903;SDS011;3997;48.416;8.512;2023-08-01T10:43:44;2.60;;;0.70;;
7903;SDS011;3997;48.416;8.512;2023-08-01T10:46:11;0.57;;;0.57;;
7903;SDS011;3997;48.416;8.512;2023-08-01T10:48:47;0.70;;;0.70;;
7903;SDS011;3997;48.416;8.512;2023-08-01T10:51:13;1.33;;;0.70;;
7903;SDS011;3997;48.416;8.512;2023-08-01T10:53:40;1.33;;;0.70;;
7903;SDS011;3997;48.416;8.512;2023-08-01T10:56:07;0.70;;;0.70;;
7903;SDS011;3997;48.416;8.512;2023-08-01T10:58:33;1.05;;;0.70;;
7903;SDS011;3997;48.416;8.512;2023-08-01T11:01:00;1.42;;;0.70;;
7903;SDS011;3997;48.416;8.512;2023-08-01T11:03:35;0.50;;;0.50;;
7903;SDS011;3997;48.416;8.512;2023-08-01T11:06:01;0.47;;;0.43;;
7903;SDS011;3997;48.416;8.512;2023-08-01T11:08:33;0.50;;;0.50;;
7903;SDS011;3997;48.416;8.512;2023-08-01T11:11:00;0.50;;;0.50;;
7903;SDS011;3997;48.416;8.512;2023-08-01T11:13:26;0.60;;;0.60;;
7903;SDS011;3997;48.416;8.512;2023-08-01T11:15:53;1.55;;;1.00;;
7903;SDS011;3997;48.416;8.512;2023-08-01T11:18:21;0.80;;;0.80;;
7903;SDS011;3997;48.416;8.512;2023-08-01T11:20:49;0.80;;;0.80;;
7903;SDS011;3997;48.416;8.512;2023-08-01T11:23:15;1.10;;;0.90;;
7903;SDS011;3997;48.416;8.512;2023-08-01T11:25:42;0.88;;;0.88;;
7903;SDS011;3997;48.416;8.512;2023-08-01T11:28:11;0.73;;;0.73;;
7903;SDS011;3997;48.416;8.512;2023-08-01T11:30:38;1.67;;;0.65;;
7903;SDS011;3997;48.416;8.512;2023-08-01T11:33:12;0.75;;;0.75;;
7903;SDS011;3997;48.416;8.512;2023-08-01T11:35:39;1.13;;;0.80;;
7903;SDS011;3997;48.416;8.512;2023-08-01T11:38:07;1.50;;;0.82;;
7903;SDS011;3997;48.416;8.512;2023-08-01T11:40:33;0.90;;;0.80;;
7903;SDS011;3997;48.416;8.512;2023-08-01T11:43:00;0.80;;;0.80;;
7903;SDS011;3997;48.416;8.512;2023-08-01T11:45:27;1.23;;;0.88;;
7903;SDS011;3997;48.416;8.512;2023-08-01T11:47:53;0.80;;;0.80;;
7903;SDS011;3997;48.416;8.512;2023-08-01T11:50:21;0.70;;;0.70;;
7903;SDS011;3997;48.416;8.512;2023-08-01T11:52:48;0.77;;;0.77;;
7903;SDS011;3997;48.416;8.512;2023-08-01T11:55:22;0.85;;;0.77;;
7903;SDS011;3997;48.416;8.512;2023-08-01T11:57:53;0.68;;;0.68;;
7903;SDS011;3997;48.416;8.512;2023-08-01T12:00:23;1.77;;;0.82;;
7903;SDS011;3997;48.416;8.512;2023-08-01T12:02:49;1.15;;;0.70;;
7903;SDS011;3997;48.416;8.512;2023-08-01T12:05:22;0.73;;;0.70;;
7903;SDS011;3997;48.416;8.512;2023-08-01T12:07:49;0.77;;;0.77;;
7903;SDS011;3997;48.416;8.512;2023-08-01T12:10:15;0.73;;;0.73;;
7903;SDS011;3997;48.416;8.512;2023-08-01T12:12:45;0.85;;;0.85;;
7903;SDS011;3997;48.416;8.512;2023-08-01T12:15:12;0.77;;;0.77;;
7903;SDS011;3997;48.416;8.512;2023-08-01T12:17:38;0.88;;;0.88;;
7903;SDS011;3997;48.416;8.512;2023-08-01T12:20:05;1.20;;;0.88;;
7903;SDS011;3997;48.416;8.512;2023-08-01T12:22:32;0.75;;;0.75;;
7903;SDS011;3997;48.416;8.512;2023-08-01T12:24:58;0.73;;;0.73;;
7903;SDS011;3997;48.416;8.512;2023-08-01T12:27:25;1.33;;;0.95;;
7903;SDS011;3997;48.416;8.512;2023-08-01T12:29:52;0.80;;;0.80;;
7903;SDS011;3997;48.416;8.512;2023-08-01T12:32:19;1.98;;;1.00;;
7903;SDS011;3997;48.416;8.512;2023-08-01T12:34:45;0.90;;;0.90;;
7903;SDS011;3997;48.416;8.512;2023-08-01T12:37:12;1.45;;;0.80;;
7903;SDS011;3997;48.416;8.512;2023-08-01T12:39:38;1.85;;;1.13;;
7903;SDS011;3997;48.416;8.512;2023-08-01T12:42:05;1.50;;;1.40;;
7903;SDS011;3997;48.416;8.512;2023-08-01T12:44:31;1.20;;;1.20;;
7903;SDS011;3997;48.416;8.512;2023-08-01T12:46:59;1.67;;;1.58;;
7903;SDS011;3997;48.416;8.512;2023-08-01T12:49:26;1.90;;;1.50;;
7903;SDS011;3997;48.416;8.512;2023-08-01T12:51:53;1.67;;;1.58;;
7903;SDS011;3997;48.416;8.512;2023-08-01T12:54:19;1.55;;;1.45;;
7903;SDS011;3997;48.416;8.512;2023-08-01T12:56:45;1.42;;;1.33;;
7903;SDS011;3997;48.416;8.512;2023-08-01T12:59:12;1.30;;;1.30;;
7903;SDS011;3997;48.416;8.512;2023-08-01T13:01:38;1.52;;;1.40;;
7903;SDS011;3997;48.416;8.512;2023-08-01T13:04:06;1.38;;;1.27;;
7903;SDS011;3997;48.416;8.512;2023-08-01T13:06:32;1.52;;;1.52;;
7903;SDS011;3997;48.416;8.512;2023-08-01T13:08:59;1.80;;;1.70;;
7903;SDS011;3997;48.416;8.512;2023-08-01T13:11:25;1.70;;;1.60;;
7903;SDS011;3997;48.416;8.512;2023-08-01T13:13:52;1.70;;;1.60;;
7903;SDS011;3997;48.416;8.512;2023-08-01T13:16:18;1.67;;;1.60;;
7903;SDS011;3997;48.416;8.512;2023-08-01T13:18:45;1.88;;;1.77;;
7903;SDS011;3997;48.416;8.512;2023-08-01T13:21:14;1.58;;;1.58;;
7903;SDS011;3997;48.416;8.512;2023-08-01T13:23:41;2.00;;;1.90;;
7903;SDS011;3997;48.416;8.512;2023-08-01T13:26:07;1.50;;;1.50;;
7903;SDS011;3997;48.416;8.512;2023-08-01T13:28:34;1.70;;;1.60;;
7903;SDS011;3997;48.416;8.512;2023-08-01T13:31:00;1.80;;;1.70;;
7903;SDS011;3997;48.416;8.512;2023-08-01T13:33:27;1.83;;;1.73;;
7903;SDS011;3997;48.416;8.512;2023-08-01T13:35:53;1.88;;;1.77;;
7903;SDS011;3997;48.416;8.512;2023-08-01T13:38:21;1.80;;;1.70;;
7903;SDS011;3997;48.416;8.512;2023-08-01T13:40:47;2.00;;;1.90;;
7903;SDS011;3997;48.416;8.512;2023-08-01T13:43:14;1.70;;;1.60;;
7903;SDS011;3997;48.416;8.512;2023-08-01T13:45:40;1.80;;;1.70;;
7903;SDS011;3997;48.416;8.512;2023-08-01T13:48:07;1.80;;;1.70;;
7903;SDS011;3997;48.416;8.512;2023-08-01T13:50:33;1.90;;;1.80;;
7903;SDS011;3997;48.416;8.512;2023-08-01T13:53:00;1.70;;;1.60;;
7903;SDS011;3997;48.416;8.512;2023-08-01T13:55:28;1.65;;;1.60;;
7903;SDS011;3997;48.416;8.512;2023-08-01T13:57:54;1.60;;;1.50;;
7903;SDS011;3997;48.416;8.512;2023-08-01T14:00:20;1.73;;;1.60;;
7903;SDS011;3997;48.416;8.512;2023-08-01T14:02:48;1.80;;;1.70;;
7903;SDS011;3997;48.416;8.512;2023-08-01T14:05:15;2.28;;;1.73;;
7903;SDS011;3997;48.416;8.512;2023-08-01T14:07:41;1.90;;;1.80;;
7903;SDS011;3997;48.416;8.512;2023-08-01T14:10:08;1.52;;;1.50;;
7903;SDS011;3997;48.416;8.512;2023-08-01T14:12:36;1.70;;;1.60;;
7903;SDS011;3997;48.416;8.512;2023-08-01T14:15:03;2.10;;;1.70;;
7903;SDS011;3997;48.416;8.512;2023-08-01T14:17:29;1.65;;;1.55;;
7903;SDS011;3997;48.416;8.512;2023-08-01T14:19:56;2.00;;;1.90;;
7903;SDS011;3997;48.416;8.512;2023-08-01T14:22:22;1.70;;;1.70;;
7903;SDS011;3997;48.416;8.512;2023-08-01T14:24:49;2.00;;;1.90;;
7903;SDS011;3997;48.416;8.512;2023-08-01T14:27:15;2.20;;;2.10;;
7903;SDS011;3997;48.416;8.512;2023-08-01T14:29:43;1.98;;;1.90;;
7903;SDS011;3997;48.416;8.512;2023-08-01T14:32:09;1.90;;;1.80;;
7903;SDS011;3997;48.416;8.512;2023-08-01T14:34:36;1.80;;;1.80;;
7903;SDS011;3997;48.416;8.512;2023-08-01T14:37:03;2.10;;;2.00;;
7903;SDS011;3997;48.416;8.512;2023-08-01T14:39:30;2.05;;;1.95;;
7903;SDS011;3997;48.416;8.512;2023-08-01T14:41:56;2.10;;;2.00;;
7903;SDS011;3997;48.416;8.512;2023-08-01T14:44:22;2.00;;;1.90;;
7903;SDS011;3997;48.416;8.512;2023-08-01T14:46:50;1.92;;;1.83;;
7903;SDS011;3997;48.416;8.512;2023-08-01T14:49:19;2.00;;;1.90;;
7903;SDS011;3997;48.416;8.512;2023-08-01T14:51:46;2.38;;;1.90;;
7903;SDS011;3997;48.416;8.512;2023-08-01T14:54:12;2.10;;;2.00;;
7903;SDS011;3997;48.416;8.512;2023-08-01T14:56:39;2.10;;;2.00;;
7903;SDS011;3997;48.416;8.512;2023-08-01T14:59:05;2.00;;;1.90;;
7903;SDS011;3997;48.416;8.512;2023-08-01T15:01:32;2.00;;;1.90;;
7903;SDS011;3997;48.416;8.512;2023-08-01T15:04:00;2.13;;;2.03;;
7903;SDS011;3997;48.416;8.512;2023-08-01T15:06:26;2.10;;;2.00;;
7903;SDS011;3997;48.416;8.512;2023-08-01T15:08:52;1.90;;;1.85;;
7903;SDS011;3997;48.416;8.512;2023-08-01T15:11:19;1.88;;;1.77;;
7903;SDS011;3997;48.416;8.512;2023-08-01T15:13:45;2.00;;;1.90;;